sensor_id;sensor_type;location;lat;lon;timestamp;pressure;altitude;pressure_sealevel;temperature;humidity
79174;BME280;68599;49.142;9.124;2023-05-07T07:56:45;99650.98;;;20.53;56.62
79174;BME280;68599;49.142;9.124;2023-05-07T08:00:26;99654.02;;;20.86;56.30
79174;BME280;68599;49.142;9.124;2023-05-07T08:02:52;99651.19;;;21.00;56.07
79174;BME280;68599;49.142;9.124;2023-05-07T08:05:19;99649.41;;;21.11;55.74
79174;BME280;68599;49.142;9.124;2023-05-07T08:07:47;99652.81;;;21.22;55.59
79174;BME280;68599;49.142;9.124;2023-05-07T08:10:18;99650.83;;;21.30;55.34
79174;BME280;68599;49.142;9.124;2023-05-07T08:12:51;99648.23;;;21.37;55.10
79174;BME280;68599;49.142;9.124;2023-05-07T08:15:18;99649.40;;;21.45;54.78
79174;BME280;68599;49.142;9.124;2023-05-07T08:17:44;99649.54;;;21.52;54.50
79174;BME280;68599;49.142;9.124;2023-05-07T08:20:11;99654.62;;;21.59;54.41
79174;BME280;68599;49.142;9.124;2023-05-07T08:22:38;99651.17;;;21.63;54.25
79174;BME280;68599;49.142;9.124;2023-05-07T08:25:05;99652.34;;;21.68;54.20
79174;BME280;68599;49.142;9.124;2023-05-07T08:27:31;99647.23;;;21.73;53.92
79174;BME280;68599;49.142;9.124;2023-05-07T08:29:57;99646.42;;;21.77;53.79
79174;BME280;68599;49.142;9.124;2023-05-07T08:32:24;99646.04;;;21.81;53.62
79174;BME280;68599;49.142;9.124;2023-05-07T08:34:51;99635.78;;;21.84;52.90
79174;BME280;68599;49.142;9.124;2023-05-07T08:37:17;99634.60;;;21.85;52.81
79174;BME280;68599;49.142;9.124;2023-05-07T08:39:43;99638.71;;;21.87;52.68
79174;BME280;68599;49.142;9.124;2023-05-07T08:42:11;99638.54;;;21.89;52.66
79174;BME280;68599;49.142;9.124;2023-05-07T08:44:39;99638.47;;;21.90;52.62
79174;BME280;68599;49.142;9.124;2023-05-07T08:47:07;99639.36;;;21.94;52.50
79174;BME280;68599;49.142;9.124;2023-05-07T08:49:34;99642.00;;;21.96;52.33
79174;BME280;68599;49.142;9.124;2023-05-07T08:52:01;99643.61;;;21.96;52.22
79174;BME280;68599;49.142;9.124;2023-05-07T08:54:28;99647.66;;;21.99;52.17
79174;BME280;68599;49.142;9.124;2023-05-07T08:56:55;99645.34;;;22.01;52.15
79174;BME280;68599;49.142;9.124;2023-05-07T08:59:22;99644.63;;;22.03;52.22
79174;BME280;68599;49.142;9.124;2023-05-07T09:01:48;99649.09;;;22.05;52.00
79174;BME280;68599;49.142;9.124;2023-05-07T09:04:15;99648.41;;;22.07;51.97
79174;BME280;68599;49.142;9.124;2023-05-07T09:06:42;99646.46;;;22.09;51.81
79174;BME280;68599;49.142;9.124;2023-05-07T09:09:08;99646.85;;;22.12;51.75
79174;BME280;68599;49.142;9.124;2023-05-07T09:11:35;99650.42;;;22.13;51.70
79174;BME280;68599;49.142;9.124;2023-05-07T09:14:01;99642.75;;;22.16;51.68
79174;BME280;68599;49.142;9.124;2023-05-07T09:16:30;99642.09;;;22.17;51.49
79174;BME280;68599;49.142;9.124;2023-05-07T09:18:58;99637.73;;;22.19;51.57
79174;BME280;68599;49.142;9.124;2023-05-07T09:21:26;99639.04;;;22.22;51.54
79174;BME280;68599;49.142;9.124;2023-05-07T09:23:55;99638.30;;;22.25;51.43
79174;BME280;68599;49.142;9.124;2023-05-07T09:26:22;99636.68;;;22.27;51.39
79174;BME280;68599;49.142;9.124;2023-05-07T09:28:49;99635.11;;;22.29;51.27
79174;BME280;68599;49.142;9.124;2023-05-07T09:31:16;99633.52;;;22.30;51.23
79174;BME280;68599;49.142;9.124;2023-05-07T09:33:46;99635.12;;;22.31;51.17
79174;BME280;68599;49.142;9.124;2023-05-07T09:36:12;99635.05;;;22.33;51.17
79174;BME280;68599;49.142;9.124;2023-05-07T09:38:39;99631.50;;;22.34;51.21
79174;BME280;68599;49.142;9.124;2023-05-07T09:41:11;99631.79;;;22.35;51.29
79174;BME280;68599;49.142;9.124;2023-05-07T09:43:38;99631.27;;;22.36;51.51
79174;BME280;68599;49.142;9.124;2023-05-07T09:46:12;99627.88;;;22.38;51.77
79174;BME280;68599;49.142;9.124;2023-05-07T09:48:42;99622.60;;;22.40;51.87
79174;BME280;68599;49.142;9.124;2023-05-07T09:51:23;99621.64;;;22.41;52.09
79174;BME280;68599;49.142;9.124;2023-05-07T09:53:53;99625.69;;;22.43;52.15
79174;BME280;68599;49.142;9.124;2023-05-07T09:56:20;99627.06;;;22.45;52.22
79174;BME280;68599;49.142;9.124;2023-05-07T09:58:48;99628.39;;;22.47;52.15
79174;BME280;68599;49.142;9.124;2023-05-07T10:01:17;99625.52;;;22.49;52.27
